Time;durP1;ratioP1;P1;durP2;ratioP2;P2;SDS_P1;SDS_P2;PMS_P1;PMS_P2;Temp;Humidity;BMP_temperature;BMP_pressure;BME280_temperature;BME280_humidity;BME280_pressure;Samples;Min_cycle;Max_cycle;Signal;HPM_P1;HPM_P2
2022/04/27 00:01:57;;;;;;;17.27;12.10;;;;;;;-145.18;100.00;46638.91;4990536;28;20125;-71
2022/04/27 00:04:23;;;;;;;27.70;13.20;;;;;;;-145.18;100.00;46640.88;4990749;28;20054;-71
2022/04/27 00:06:48;;;;;;;22.90;12.23;;;;;;;-145.18;100.00;46640.88;4990383;28;20049;-71
2022/04/27 00:09:14;;;;;;;19.97;13.53;;;;;;;-145.18;100.00;46644.78;4973224;28;20491;-71
2022/04/27 00:11:39;;;;;;;22.10;13.13;;;;;;;-145.18;100.00;46656.50;4990655;28;20120;-71
2022/04/27 00:14:05;;;;;;;24.03;12.70;;;;;;;-145.18;100.00;46668.22;4990997;28;20629;-71
2022/04/27 00:16:30;;;;;;;25.83;13.10;;;;;;;-145.18;100.00;46668.22;4990357;28;20523;-71
2022/04/27 00:18:56;;;;;;;28.30;14.17;;;;;;;-145.18;100.00;46674.06;4952884;28;20110;-71
2022/04/27 00:21:22;;;;;;;24.00;13.50;;;;;;;-145.18;100.00;46674.06;4951832;29;20492;-71
2022/04/27 00:23:48;;;;;;;23.93;13.57;;;;;;;-145.18;100.00;46677.97;4951614;29;20067;-71
2022/04/27 00:26:13;;;;;;;23.93;14.30;;;;;;;-145.18;100.00;46677.97;4952125;29;20285;-71
2022/04/27 00:28:39;;;;;;;25.60;13.50;;;;;;;-145.18;100.00;46679.94;4951236;29;20046;-71
2022/04/27 00:31:04;;;;;;;27.63;13.53;;;;;;;-145.18;100.00;46689.69;4952111;29;20042;-71
2022/04/27 00:33:31;;;;;;;25.07;13.33;;;;;;;-145.18;100.00;46683.84;4951268;29;20066;-72
2022/04/27 00:35:57;;;;;;;25.87;12.33;;;;;;;-145.18;100.00;46683.84;4952192;29;20031;-72
2022/04/27 00:38:22;;;;;;;19.80;12.43;;;;;;;-145.18;100.00;46695.56;4950859;29;20747;-72
2022/04/27 00:40:48;;;;;;;24.73;13.30;;;;;;;-145.18;100.00;46683.84;4951213;29;20066;-71
2022/04/27 00:43:17;;;;;;;26.20;13.00;;;;;;;-145.18;100.00;46681.88;4950889;29;20519;-71
2022/04/27 00:45:43;;;;;;;24.17;12.93;;;;;;;-145.18;100.00;46681.88;4950845;29;20444;-71
2022/04/27 00:48:09;;;;;;;23.13;12.80;;;;;;;-145.18;100.00;46679.94;4951232;29;20292;-71
2022/04/27 00:50:35;;;;;;;25.10;13.70;;;;;;;-145.18;100.00;46677.97;4950964;29;20063;-72
2022/04/27 00:53:01;;;;;;;23.30;11.57;;;;;;;-145.18;100.00;46691.66;4950771;29;20277;-72
2022/04/27 00:55:28;;;;;;;26.37;12.37;;;;;;;-145.18;100.00;46695.56;4951593;29;20804;-71
2022/04/27 00:57:54;;;;;;;22.73;12.53;;;;;;;-145.18;100.00;46687.75;4933733;29;20070;-71
2022/04/27 01:00:19;;;;;;;21.47;13.23;;;;;;;-145.18;100.00;46689.69;4951443;29;20305;-71
2022/04/27 01:02:45;;;;;;;27.23;13.53;;;;;;;-145.18;100.00;46691.66;4950367;29;20083;-71
2022/04/27 01:05:12;;;;;;;22.50;12.43;;;;;;;-145.18;100.00;46695.56;4935159;29;20036;-72
2022/04/27 01:07:38;;;;;;;22.20;13.10;;;;;;;-145.18;100.00;46695.56;4954198;29;20035;-71
2022/04/27 01:10:06;;;;;;;22.97;12.93;;;;;;;-145.18;100.00;46703.38;4955653;29;20328;-72
2022/04/27 01:12:32;;;;;;;24.43;13.37;;;;;;;-145.18;100.00;46701.41;4954510;29;20306;-71
2022/04/27 01:14:57;;;;;;;23.57;12.57;;;;;;;-145.18;100.00;46703.38;4955213;29;20281;-71
2022/04/27 01:17:23;;;;;;;21.70;12.20;;;;;;;-145.18;100.00;46697.50;4955043;29;20650;-71
2022/04/27 01:19:48;;;;;;;29.97;14.00;;;;;;;-145.18;100.00;46699.47;4955116;29;20035;-71
2022/04/27 01:22:14;;;;;;;24.57;13.40;;;;;;;-145.18;100.00;46701.41;4954522;29;20149;-71
2022/04/27 01:24:40;;;;;;;27.47;14.40;;;;;;;-145.18;100.00;46703.38;4955188;29;20042;-72
2022/04/27 01:27:06;;;;;;;32.00;14.83;;;;;;;-145.18;100.00;46697.50;4954238;29;20148;-71
2022/04/27 01:29:33;;;;;;;27.00;14.53;;;;;;;-145.18;100.00;46695.56;4954422;29;20369;-71
2022/04/27 01:32:00;;;;;;;23.03;13.60;;;;;;;-145.18;100.00;46701.41;4955068;29;20164;-71
2022/04/27 01:34:26;;;;;;;22.60;13.97;;;;;;;-145.18;100.00;46691.66;4954784;29;20281;-71
2022/04/27 01:36:54;;;;;;;25.70;13.57;;;;;;;-145.18;100.00;46691.66;4954374;29;20282;-72
2022/04/27 01:39:23;;;;;;;26.83;13.97;;;;;;;-145.18;100.00;46697.50;4955272;29;20047;-72
2022/04/27 01:41:49;;;;;;;22.83;13.87;;;;;;;-145.18;100.00;46691.66;4954062;29;20704;-72
2022/04/27 01:44:14;;;;;;;23.73;13.57;;;;;;;-145.18;100.00;46691.66;4953416;29;20270;-72
2022/04/27 01:46:39;;;;;;;22.57;11.33;;;;;;;-145.18;100.00;46697.50;4954217;29;20854;-72
2022/04/27 01:49:05;;;;;;;20.63;12.23;;;;;;;-145.18;100.00;46699.47;4936887;29;20752;-72
2022/04/27 01:54:17;;;;;;;20.87;11.00;;;;;;;-145.18;100.00;46699.47;4965444;28;20078;-71
2022/04/27 01:56:50;;;;;;;17.23;11.37;;;;;;;-145.18;100.00;46695.56;4956090;28;20839;-71
2022/04/27 01:59:16;;;;;;;20.57;11.47;;;;;;;-145.18;100.00;46695.56;4973763;28;20359;-71
2022/04/27 02:01:42;;;;;;;18.67;11.40;;;;;;;-145.18;100.00;46697.50;5249342;23;20472;-71
2022/04/27 02:04:08;;;;;;;20.00;11.60;;;;;;;-145.18;100.00;46687.75;4964630;28;20059;-71
2022/04/27 02:06:35;;;;;;;20.80;12.20;;;;;;;-145.18;100.00;46685.78;4979912;28;20509;-71
2022/04/27 02:09:03;;;;;;;17.63;11.23;;;;;;;-145.18;100.00;46683.84;4973117;28;20292;-70
2022/04/27 02:11:28;;;;;;;19.70;11.17;;;;;;;-145.18;100.00;46672.13;4956673;28;20277;-70
2022/04/27 02:13:55;;;;;;;17.63;10.87;;;;;;;-145.18;100.00;46674.06;4973576;28;20276;-70
2022/04/27 02:16:27;;;;;;;18.80;12.27;;;;;;;-145.18;100.00;46670.16;4972785;28;20035;-70
2022/04/27 02:18:53;;;;;;;23.70;12.93;;;;;;;-145.18;100.00;46674.06;4973058;28;20311;-71
2022/04/27 02:21:18;;;;;;;21.43;13.73;;;;;;;-145.18;100.00;46677.97;4973683;28;20308;-70
2022/04/27 02:23:47;;;;;;;23.80;12.63;;;;;;;-145.18;100.00;46683.84;4973244;28;20039;-71
2022/04/27 02:26:13;;;;;;;25.50;12.07;;;;;;;-145.18;100.00;46691.66;4973586;28;20924;-71
2022/04/27 02:28:38;;;;;;;21.20;12.80;;;;;;;-145.18;100.00;46676.03;4973241;28;20335;-71
2022/04/27 02:31:03;;;;;;;19.87;12.60;;;;;;;-145.18;100.00;46672.13;4973039;28;20039;-71
2022/04/27 02:33:30;;;;;;;19.00;12.03;;;;;;;-145.18;100.00;46664.31;4973133;28;20106;-71
2022/04/27 02:35:56;;;;;;;19.77;11.73;;;;;;;-145.18;100.00;46640.88;4955972;28;20027;-71
2022/04/27 02:38:22;;;;;;;16.57;10.23;;;;;;;-145.18;100.00;46635.00;4972687;28;20280;-70
2022/04/27 02:40:47;;;;;;;18.43;10.87;;;;;;;-145.18;100.00;46631.09;4972993;28;20031;-70
2022/04/27 02:43:13;;;;;;;22.47;12.07;;;;;;;-145.18;100.00;46642.81;4972939;28;20039;-71
2022/04/27 02:45:39;;;;;;;17.57;10.83;;;;;;;-145.18;100.00;46656.50;4973374;28;20490;-70
2022/04/27 02:48:06;;;;;;;19.13;11.20;;;;;;;-145.18;100.00;46660.41;4972445;28;20038;-70
2022/04/27 02:53:15;;;;;;;19.33;10.97;;;;;;;-145.18;100.00;46685.78;4973119;28;20271;-71
2022/04/27 02:55:40;;;;;;;13.83;9.30;;;;;;;-145.18;100.00;46685.78;4971843;28;20288;-70
2022/04/27 02:58:05;;;;;;;20.97;10.80;;;;;;;-145.18;100.00;46679.94;4971270;28;20082;-70
2022/04/27 03:00:31;;;;;;;17.93;9.23;;;;;;;-145.18;100.00;46672.13;4978826;28;20074;-70
2022/04/27 03:02:57;;;;;;;17.57;10.17;;;;;;;-145.18;100.00;46654.53;4982789;28;20042;-70
2022/04/27 03:05:22;;;;;;;22.63;10.83;;;;;;;-145.18;100.00;46638.91;4972837;28;20494;-70
2022/04/27 03:07:48;;;;;;;20.23;12.73;;;;;;;-145.18;100.00;46660.41;4971959;28;20281;-70
2022/04/27 03:10:14;;;;;;;15.07;10.00;;;;;;;-145.18;100.00;46670.16;4972416;28;20026;-70
2022/04/27 03:12:39;;;;;;;16.80;9.77;;;;;;;-145.18;100.00;46664.31;4972351;28;20105;-70
2022/04/27 03:15:05;;;;;;;10.47;7.10;;;;;;;-145.18;100.00;46670.16;4972100;28;20027;-70
2022/04/27 03:17:30;;;;;;;14.73;8.87;;;;;;;-145.18;100.00;46668.22;4972110;28;20030;-70
2022/04/27 03:19:56;;;;;;;19.63;10.53;;;;;;;-145.18;100.00;46664.31;4972400;28;20039;-70
2022/04/27 03:22:22;;;;;;;17.07;9.90;;;;;;;-145.18;100.00;46670.16;4972012;28;20114;-71
2022/04/27 03:24:47;;;;;;;11.57;4.80;;;;;;;-145.18;100.00;46668.22;4972097;28;20034;-70
2022/04/27 03:27:13;;;;;;;15.43;7.90;;;;;;;-145.18;100.00;46666.25;4971807;28;20288;-70
2022/04/27 03:29:38;;;;;;;14.27;8.30;;;;;;;-145.18;100.00;46666.25;4971668;28;20031;-70
2022/04/27 03:32:04;;;;;;;14.37;8.00;;;;;;;-145.18;100.00;46672.13;4954293;28;20035;-70
2022/04/27 03:34:30;;;;;;;12.10;7.20;;;;;;;-145.18;100.00;46652.59;4972437;28;20034;-70
2022/04/27 03:36:56;;;;;;;12.40;8.57;;;;;;;-145.18;100.00;46642.81;4971604;28;20042;-70
2022/04/27 03:39:21;;;;;;;21.63;12.20;;;;;;;-145.18;100.00;46642.81;4971793;28;20042;-70
2022/04/27 03:41:46;;;;;;;13.03;7.97;;;;;;;-145.18;100.00;46656.50;4954674;28;20037;-70
2022/04/27 03:44:12;;;;;;;9.53;6.37;;;;;;;-145.18;100.00;46631.09;4971483;28;20046;-70
2022/04/27 03:46:37;;;;;;;18.30;8.73;;;;;;;-145.18;100.00;46625.22;4971974;28;20043;-69
2022/04/27 03:49:02;;;;;;;19.27;9.33;;;;;;;-145.18;100.00;46633.06;4971114;28;20117;-70
2022/04/27 03:51:28;;;;;;;20.53;10.63;;;;;;;-145.18;100.00;46629.13;4971926;28;20105;-70
2022/04/27 03:53:53;;;;;;;20.00;10.90;;;;;;;-145.18;100.00;46629.13;4971556;28;20066;-70
2022/04/27 03:56:19;;;;;;;16.87;9.77;;;;;;;-145.18;100.00;46636.94;4972121;28;20490;-71
2022/04/27 03:58:44;;;;;;;14.77;8.40;;;;;;;-145.18;100.00;46642.81;4971623;28;20479;-70
2022/04/27 04:01:09;;;;;;;20.77;10.83;;;;;;;-145.18;100.00;46650.63;4971561;28;20529;-70
2022/04/27 04:03:35;;;;;;;16.73;9.67;;;;;;;-145.18;100.00;46660.41;4971080;28;20086;-70
2022/04/27 04:06:00;;;;;;;27.90;11.60;;;;;;;-145.18;100.00;46654.53;4971224;28;20042;-70
2022/04/27 04:08:25;;;;;;;26.23;14.13;;;;;;;-145.18;100.00;46656.50;4971001;28;20388;-70
2022/04/27 04:10:51;;;;;;;24.83;11.53;;;;;;;-145.18;100.00;46646.72;4971362;28;20031;-69
2022/04/27 04:13:16;;;;;;;19.50;11.37;;;;;;;-145.18;100.00;46670.16;4971510;28;20038;-71
2022/04/27 04:15:41;;;;;;;26.83;12.47;;;;;;;-145.18;100.00;46676.03;4970588;28;20042;-70
2022/04/27 04:18:07;;;;;;;26.63;13.07;;;;;;;-145.18;100.00;46685.78;4971476;28;20039;-70
2022/04/27 04:20:33;;;;;;;23.67;12.40;;;;;;;-145.18;100.00;46691.66;4970726;28;20402;-70
2022/04/27 04:22:58;;;;;;;14.73;7.70;;;;;;;-145.18;100.00;46695.56;4970602;28;20114;-70
2022/04/27 04:30:51;;;;;;;92.88;7.32;;;;;;;-145.18;100.00;46695.56;4963701;28;20033;-70
2022/04/27 04:33:16;;;;;;;89.77;11.40;;;;;;;-145.18;100.00;46691.66;4954903;28;20034;-70
2022/04/27 04:35:42;;;;;;;20.20;7.53;;;;;;;-145.18;100.00;46691.66;4938391;28;20095;-70
2022/04/27 04:38:07;;;;;;;12.57;6.70;;;;;;;-145.18;100.00;46693.59;4957562;28;20066;-70
2022/04/27 04:40:33;;;;;;;17.37;5.70;;;;;;;-145.18;100.00;46685.78;4967988;28;20034;-70
2022/04/27 04:42:59;;;;;;;11.23;5.00;;;;;;;-145.18;100.00;46687.75;4989427;28;20034;-70
2022/04/27 04:45:24;;;;;;;8.43;4.97;;;;;;;-145.18;100.00;46687.75;4976121;28;20141;-70
2022/04/27 04:47:50;;;;;;;17.63;4.20;;;;;;;-145.18;100.00;46695.56;4980314;28;20562;-70
2022/04/27 04:50:15;;;;;;;5.93;3.57;;;;;;;-145.18;100.00;46687.75;4973469;28;20030;-70
2022/04/27 04:52:41;;;;;;;10.90;6.13;;;;;;;-145.18;100.00;46681.88;4970328;28;20117;-70
2022/04/27 04:55:07;;;;;;;18.97;4.87;;;;;;;-145.18;100.00;46683.84;4952672;28;20310;-70
2022/04/27 04:57:32;;;;;;;7.77;4.97;;;;;;;-145.18;100.00;46679.94;4972675;28;20030;-70
2022/04/27 04:59:58;;;;;;;8.80;5.30;;;;;;;-145.18;100.00;46679.94;4955542;28;20035;-70
2022/04/27 05:02:23;;;;;;;10.50;5.10;;;;;;;-145.18;100.00;46681.88;4965239;28;20039;-71
2022/04/27 05:04:50;;;;;;;6.83;4.67;;;;;;;-145.18;100.00;46676.03;4969722;28;20241;-71
2022/04/27 05:07:18;;;;;;;8.88;5.80;;;;;;;-145.18;100.00;46676.03;4970399;28;20027;-71
2022/04/27 05:09:43;;;;;;;9.77;5.55;;;;;;;-145.18;100.00;46676.03;4970463;28;20031;-71
2022/04/27 05:12:09;;;;;;;9.87;6.07;;;;;;;-145.18;100.00;46677.97;4970561;28;20031;-71
2022/04/27 05:14:35;;;;;;;9.00;5.23;;;;;;;-145.18;100.00;46677.97;4970638;28;20173;-71
2022/04/27 05:17:00;;;;;;;9.17;5.67;;;;;;;-145.18;100.00;46672.13;4970409;28;20046;-71
2022/04/27 05:19:25;;;;;;;6.33;4.57;;;;;;;-145.18;100.00;46674.06;4970430;28;20118;-72
2022/04/27 05:21:51;;;;;;;11.37;7.03;;;;;;;-145.18;100.00;46672.13;4970294;28;20044;-71
2022/04/27 05:24:16;;;;;;;17.93;10.33;;;;;;;-145.18;100.00;46676.03;4970262;28;20031;-71
2022/04/27 05:26:42;;;;;;;16.23;8.40;;;;;;;-145.18;100.00;46676.03;4969810;28;20523;-71
2022/04/27 05:32:00;;;;;;;18.77;10.30;;;;;;;-145.18;100.00;46668.22;4982026;28;20038;-71
2022/04/27 05:34:29;;;;;;;17.67;10.02;;;;;;;-145.18;100.00;46664.31;4987644;28;20394;-71
2022/04/27 05:36:56;;;;;;;19.13;10.65;;;;;;;-145.18;100.00;46666.25;4989463;28;20046;-71
2022/04/27 05:39:21;;;;;;;20.17;11.77;;;;;;;-145.18;100.00;46672.13;4989251;28;20038;-71
2022/04/27 05:41:50;;;;;;;21.03;12.13;;;;;;;-145.18;100.00;46672.13;4989210;28;20034;-71
2022/04/27 05:44:22;;;;;;;21.20;12.10;;;;;;;-145.18;100.00;46666.25;4989114;28;20030;-71
2022/04/27 05:46:51;;;;;;;22.63;13.13;;;;;;;-145.18;100.00;46668.22;4989359;28;20296;-71
2022/04/27 05:49:18;;;;;;;22.87;11.90;;;;;;;-145.18;100.00;46660.41;4989015;28;20639;-71
2022/04/27 05:51:43;;;;;;;21.20;11.87;;;;;;;-145.18;100.00;46666.25;4991392;28;20299;-71
2022/04/27 05:54:08;;;;;;;17.50;9.43;;;;;;;-145.18;100.00;46666.25;4992537;28;20287;-71
2022/04/27 05:56:34;;;;;;;15.87;9.47;;;;;;;-145.18;100.00;46666.25;4987496;28;20031;-72
2022/04/27 05:59:00;;;;;;;15.50;9.93;;;;;;;-145.18;100.00;46664.31;4972472;28;20038;-72
2022/04/27 06:01:25;;;;;;;20.73;11.03;;;;;;;-145.18;100.00;46666.25;4973052;28;20042;-71
2022/04/27 06:03:53;;;;;;;25.53;13.77;;;;;;;-145.18;100.00;46666.25;4972687;28;20495;-72
2022/04/27 06:06:18;;;;;;;22.93;13.67;;;;;;;-145.18;100.00;46660.41;4973412;28;20051;-71
2022/04/27 06:08:44;;;;;;;29.50;14.93;;;;;;;-145.18;100.00;46656.50;4987046;28;20314;-71
2022/04/27 06:11:09;;;;;;;26.40;14.87;;;;;;;-145.18;100.00;46660.41;5010970;28;20045;-72
2022/04/27 06:13:34;;;;;;;33.83;15.40;;;;;;;-145.18;100.00;46658.44;4974878;28;20488;-70
2022/04/27 06:16:00;;;;;;;27.70;15.47;;;;;;;-145.18;100.00;46662.34;4975245;28;20034;-70
2022/04/27 06:18:25;;;;;;;29.50;15.40;;;;;;;-145.18;100.00;46658.44;4992219;28;20089;-70
2022/04/27 06:20:54;;;;;;;32.67;16.13;;;;;;;-145.18;100.00;46656.50;4992510;28;20030;-70
2022/04/27 06:23:19;;;;;;;31.87;16.00;;;;;;;-145.18;100.00;46654.53;4992346;28;20030;-70
2022/04/27 06:25:49;;;;;;;35.10;15.83;;;;;;;-145.18;100.00;46660.41;4992867;28;20279;-70
2022/04/27 06:28:15;;;;;;;30.77;15.70;;;;;;;-145.18;100.00;46656.50;4992308;28;20088;-70
2022/04/27 06:30:40;;;;;;;30.27;15.67;;;;;;;-145.18;100.00;46658.44;4978161;28;20264;-70
2022/04/27 06:33:06;;;;;;;36.87;16.97;;;;;;;-145.18;100.00;46654.53;4972427;28;20039;-70
2022/04/27 06:35:32;;;;;;;33.33;17.87;;;;;;;-145.18;100.00;46658.44;4955951;28;20483;-70
2022/04/27 06:37:57;;;;;;;32.73;15.83;;;;;;;-145.18;100.00;46658.44;4972286;28;20101;-70
2022/04/27 06:40:22;;;;;;;29.23;15.97;;;;;;;-145.18;100.00;46654.53;4955584;28;20277;-70
2022/04/27 06:42:48;;;;;;;26.30;14.30;;;;;;;-145.18;100.00;46658.44;4972261;28;20053;-70
2022/04/27 06:45:13;;;;;;;25.00;13.57;;;;;;;-145.18;100.00;46652.59;4972876;28;20064;-70
2022/04/27 06:47:39;;;;;;;27.93;13.60;;;;;;;-145.18;100.00;46654.53;4972456;28;20113;-70
2022/04/27 06:50:06;;;;;;;27.63;13.57;;;;;;;-145.18;100.00;46662.34;4972184;28;20063;-70
2022/04/27 06:52:32;;;;;;;22.50;13.07;;;;;;;-145.18;100.00;46664.31;4972793;28;20114;-70
2022/04/27 06:54:57;;;;;;;26.90;12.80;;;;;;;-145.18;100.00;46660.41;4972521;28;20275;-70
2022/04/27 06:57:23;;;;;;;21.20;12.07;;;;;;;-145.18;100.00;46662.34;4981763;28;20042;-70
2022/04/27 06:59:48;;;;;;;20.27;11.50;;;;;;;-145.18;100.00;46666.25;4972174;28;20078;-70
2022/04/27 07:02:15;;;;;;;20.10;11.77;;;;;;;-145.18;100.00;46664.31;4972011;28;20035;-69
2022/04/27 07:04:43;;;;;;;20.87;11.60;;;;;;;-145.18;100.00;46656.50;4971789;28;20526;-70
2022/04/27 07:07:09;;;;;;;21.47;10.00;;;;;;;-145.18;100.00;46644.78;4972164;28;20303;-70
2022/04/27 07:09:35;;;;;;;17.00;9.87;;;;;;;-145.18;100.00;46629.13;4986153;28;20280;-70
2022/04/27 07:12:00;;;;;;;19.87;10.77;;;;;;;-145.18;100.00;46562.72;4990892;28;20062;-70
2022/04/27 07:14:26;;;;;;;17.57;9.60;;;;;;;-145.18;100.00;46537.34;4971329;28;20827;-70
2022/04/27 07:16:51;;;;;;;20.93;10.07;;;;;;;-145.18;100.00;46539.28;4990819;28;20030;-70
2022/04/27 07:19:17;;;;;;;14.17;7.43;;;;;;;-145.18;100.00;46558.81;4988143;28;20067;-70
2022/04/27 07:21:42;;;;;;;14.37;7.17;;;;;;;-145.18;100.00;46564.69;4991500;28;20742;-70
2022/04/27 07:24:08;;;;;;;14.00;7.17;;;;;;;-145.18;100.00;46578.34;4990725;28;20272;-70
2022/04/27 07:26:34;;;;;;;13.90;6.10;;;;;;;-145.18;100.00;46588.13;4990696;28;20026;-70
2022/04/27 07:29:00;;;;;;;10.93;5.90;;;;;;;-145.18;100.00;46590.06;4990334;28;20041;-70
2022/04/27 07:31:26;;;;;;;12.60;6.07;;;;;;;-145.18;100.00;46609.59;4990464;28;20268;-70
2022/04/27 07:33:51;;;;;;;11.63;5.67;;;;;;;-145.18;100.00;46592.03;4990347;28;20491;-70
2022/04/27 07:36:17;;;;;;;15.93;8.63;;;;;;;-145.18;100.00;46605.69;4991002;28;20034;-70
2022/04/27 07:38:43;;;;;;;13.23;7.43;;;;;;;-145.18;100.00;46586.16;4992924;28;20054;-70
2022/04/27 07:41:10;;;;;;;10.30;6.07;;;;;;;-145.18;100.00;46621.31;4999472;28;20342;-70
2022/04/27 07:43:35;;;;;;;10.97;6.80;;;;;;;-145.18;100.00;46623.28;4972570;28;20022;-70
2022/04/27 07:46:03;;;;;;;12.57;5.17;;;;;;;-145.18;100.00;46654.53;4989834;28;20327;-70
2022/04/27 07:48:32;;;;;;;14.17;6.37;;;;;;;-145.18;100.00;46633.06;4989555;28;20037;-70
2022/04/27 07:51:02;;;;;;;12.50;6.60;;;;;;;-145.18;100.00;46638.91;4990777;28;20844;-70
2022/04/27 07:53:27;;;;;;;16.10;6.63;;;;;;;-145.18;100.00;46638.91;4989621;28;20326;-71
2022/04/27 07:55:53;;;;;;;13.63;7.13;;;;;;;-145.18;100.00;46629.13;4970509;28;20276;-70
2022/04/27 07:58:18;;;;;;;12.60;6.40;;;;;;;-145.18;100.00;46623.28;4970104;28;20062;-70
2022/04/27 08:00:43;;;;;;;12.83;6.90;;;;;;;-145.18;100.00;46672.13;4971166;28;20027;-70
2022/04/27 08:03:09;;;;;;;12.53;6.20;;;;;;;-145.18;100.00;46619.38;5002491;28;20569;-71
2022/04/27 08:05:34;;;;;;;9.87;5.47;;;;;;;-145.18;100.00;46674.06;4991306;28;20069;-70
2022/04/27 08:08:00;;;;;;;10.43;5.40;;;;;;;-145.18;100.00;46670.16;4973250;28;20080;-71
2022/04/27 08:10:26;;;;;;;12.80;5.10;;;;;;;-145.18;100.00;46646.72;4991212;28;20030;-70
2022/04/27 08:12:51;;;;;;;7.53;3.90;;;;;;;-145.18;100.00;46883.09;4990276;28;20030;-71
2022/04/27 08:15:19;;;;;;;9.60;4.80;;;;;;;-145.18;100.00;47328.50;4989778;28;20287;-71
2022/04/27 08:17:56;;;;;;;12.20;4.33;;;;;;;-145.18;100.00;47293.31;4990655;28;20034;-71
2022/04/27 08:23:09;;;;;;;6.25;2.38;;;;;;;-145.18;100.00;47281.59;4990353;28;21110;-70
2022/04/27 08:25:36;;;;;;;5.40;2.10;;;;;;;-145.18;100.00;47322.63;4990791;28;20041;-70
2022/04/27 08:28:05;;;;;;;3.47;1.83;;;;;;;-145.18;100.00;47322.63;4989900;28;20307;-71
2022/04/27 08:30:34;;;;;;;7.47;2.73;;;;;;;-145.18;100.00;47344.13;4990709;28;20310;-71
2022/04/27 08:33:00;;;;;;;5.73;2.57;;;;;;;-145.18;100.00;47328.50;4990041;28;20637;-71
2022/04/27 08:35:27;;;;;;;5.43;2.83;;;;;;;-145.18;100.00;47367.56;4990821;28;20280;-71
2022/04/27 08:37:52;;;;;;;5.03;2.23;;;;;;;-145.18;100.00;47377.34;4990158;28;20501;-71
2022/04/27 08:40:18;;;;;;;7.97;2.20;;;;;;;-145.18;100.00;47349.97;4990468;28;20256;-71
2022/04/27 08:42:44;;;;;;;5.80;2.67;;;;;;;-145.18;100.00;47373.44;4989648;28;20030;-71
2022/04/27 08:45:10;;;;;;;4.93;2.50;;;;;;;-145.18;100.00;47379.28;4989906;28;20342;-71
2022/04/27 08:47:35;;;;;;;5.20;2.37;;;;;;;-145.18;100.00;47357.78;4990471;28;20053;-71
2022/04/27 08:50:14;;;;;;;3.77;2.30;;;;;;;-145.18;100.00;47353.88;4990054;28;20542;-71
2022/04/27 08:52:41;;;;;;;4.60;2.70;;;;;;;-145.18;100.00;47367.56;4990545;28;20076;-71
2022/04/27 08:55:08;;;;;;;5.53;2.30;;;;;;;-145.18;100.00;47355.84;4989849;28;20292;-71
2022/04/27 08:57:34;;;;;;;3.43;1.87;;;;;;;-145.18;100.00;47336.31;4990411;28;20276;-71
2022/04/27 08:59:59;;;;;;;5.70;1.93;;;;;;;-145.18;100.00;47349.97;4990171;28;20636;-71
2022/04/27 09:02:28;;;;;;;2.93;2.10;;;;;;;-145.18;100.00;47328.50;4990282;28;20521;-71
2022/04/27 09:05:17;;;;;;;3.63;1.90;;;;;;;-145.18;100.00;47340.22;4990058;28;20491;-71
2022/04/27 09:07:50;;;;;;;4.40;2.40;;;;;;;-145.18;100.00;47346.06;4981066;28;20291;-71
2022/04/27 09:10:17;;;;;;;6.67;2.73;;;;;;;-145.18;100.00;47355.84;4989891;28;20725;-71
2022/04/27 09:12:50;;;;;;;10.43;3.10;;;;;;;-145.18;100.00;47348.03;4990215;28;20755;-71
2022/04/27 09:15:18;;;;;;;4.27;2.90;;;;;;;-145.18;100.00;47359.75;4990226;28;20296;-70
2022/04/27 09:23:25;;;;;;;5.13;2.90;;;;;;;-145.18;100.00;47312.88;4990021;28;20250;-71
2022/04/27 09:25:56;;;;;;;7.23;2.50;;;;;;;-145.18;100.00;47359.75;4990646;28;20284;-71
2022/04/27 09:28:23;;;;;;;6.57;2.50;;;;;;;-145.18;100.00;47340.22;4993444;28;20295;-71
2022/04/27 09:30:49;;;;;;;3.90;2.60;;;;;;;-145.18;100.00;47349.97;4993839;28;20676;-71
2022/04/27 09:33:35;;;;;;;5.17;3.00;;;;;;;-145.18;100.00;47293.31;4976209;28;20256;-71
2022/04/27 09:36:17;;;;;;;5.78;3.03;;;;;;;-145.18;100.00;47283.56;4993664;28;20133;-71
2022/04/27 09:38:43;;;;;;;6.00;3.07;;;;;;;-145.18;100.00;47308.97;4975734;28;20041;-71
2022/04/27 09:41:09;;;;;;;8.60;4.10;;;;;;;-145.18;100.00;47301.16;4993825;28;20760;-71
2022/04/27 09:43:44;;;;;;;6.50;4.07;;;;;;;-145.18;100.00;47307.00;4992816;28;20279;-71
2022/04/27 09:46:25;;;;;;;8.77;3.92;;;;;;;-145.18;100.00;47316.78;4993631;28;20069;-70
2022/04/27 09:49:09;;;;;;;4.57;3.23;;;;;;;-145.18;100.00;47320.69;4992837;28;20066;-71
2022/04/27 09:51:50;;;;;;;8.93;3.40;;;;;;;-145.18;100.00;47223.00;4993606;28;20286;-71
2022/04/27 09:54:21;;;;;;;7.03;3.23;;;;;;;-145.18;100.00;47195.66;4993793;28;20586;-71
2022/04/27 09:56:55;;;;;;;7.73;3.20;;;;;;;-145.18;100.00;47156.56;4991535;28;20268;-72
2022/04/27 09:59:31;;;;;;;7.23;3.30;;;;;;;-145.18;100.00;47133.13;4988353;28;20031;-72
2022/04/27 10:01:59;;;;;;;5.30;2.87;;;;;;;-145.18;100.00;47139.00;4992577;28;20022;-71
2022/04/27 10:04:28;;;;;;;4.83;2.87;;;;;;;-145.18;100.00;47119.47;4979981;28;20475;-71
2022/04/27 10:06:58;;;;;;;7.83;3.13;;;;;;;-145.18;100.00;47101.88;4973521;28;20034;-71
2022/04/27 10:09:25;;;;;;;3.50;2.57;;;;;;;-145.18;100.00;47154.63;4983143;28;20547;-72
2022/04/27 10:11:51;;;;;;;5.00;2.90;;;;;;;-145.18;100.00;47117.50;4992725;28;20092;-72
2022/04/27 10:14:17;;;;;;;4.03;2.83;;;;;;;-145.18;100.00;47172.19;4992892;28;20034;-71
2022/04/27 10:16:43;;;;;;;7.13;3.33;;;;;;;-145.18;100.00;47207.38;4993021;28;20034;-71
2022/04/27 10:19:10;;;;;;;5.57;2.90;;;;;;;-145.18;100.00;47228.84;4992484;28;20041;-71
2022/04/27 10:21:39;;;;;;;3.63;2.40;;;;;;;-145.18;100.00;47254.25;4993188;28;20026;-71
2022/04/27 10:24:08;;;;;;;6.10;2.80;;;;;;;-145.18;100.00;47293.31;4992297;28;20402;-71
2022/04/27 10:26:33;;;;;;;6.10;2.97;;;;;;;-145.18;100.00;47299.19;4975141;28;20108;-71
2022/04/27 10:29:01;;;;;;;4.93;3.17;;;;;;;-145.18;100.00;47324.59;4990778;28;20030;-71
2022/04/27 10:31:47;;;;;;;6.60;3.20;;;;;;;-145.18;100.00;47332.41;4992328;28;20036;-71
2022/04/27 10:34:21;;;;;;;10.75;3.80;;;;;;;-145.18;100.00;47301.16;4992010;28;20258;-71
2022/04/27 10:36:48;;;;;;;7.03;4.87;;;;;;;-145.18;100.00;47297.22;4985287;28;20043;-71
2022/04/27 10:39:14;;;;;;;9.53;3.37;;;;;;;-145.18;100.00;47254.25;4967871;28;20515;-71
2022/04/27 10:41:41;;;;;;;10.20;3.70;;;;;;;-145.18;100.00;47248.41;4973102;28;20035;-71
2022/04/27 10:44:06;;;;;;;4.70;3.00;;;;;;;-145.18;100.00;47221.03;4968151;28;20895;-71
2022/04/27 10:46:38;;;;;;;7.50;3.17;;;;;;;-145.18;100.00;47215.19;4972736;28;20066;-71
2022/04/27 10:49:22;;;;;;;9.60;3.10;;;;;;;-145.18;100.00;47189.78;4972054;28;20506;-71
2022/04/27 10:52:02;;;;;;;9.27;4.53;;;;;;;-145.18;100.00;47191.75;4975198;28;20030;-71
2022/04/27 10:54:31;;;;;;;7.03;3.60;;;;;;;-145.18;100.00;47201.50;4992045;28;20030;-71
2022/04/27 10:57:19;;;;;;;7.67;3.63;;;;;;;-145.18;100.00;47160.47;4991739;28;20479;-71
2022/04/27 10:59:51;;;;;;;7.57;3.30;;;;;;;-145.18;100.00;47170.25;4991488;28;20041;-71
2022/04/27 11:02:37;;;;;;;5.37;4.17;;;;;;;-145.18;100.00;47162.44;4992160;28;20055;-71
2022/04/27 11:05:04;;;;;;;8.93;3.30;;;;;;;-145.18;100.00;47181.97;4991448;28;20145;-71
2022/04/27 11:07:34;;;;;;;7.20;3.50;;;;;;;-145.18;100.00;47201.50;4991890;28;20372;-71
2022/04/27 11:10:08;;;;;;;7.03;3.07;;;;;;;-145.18;100.00;47211.28;4991284;28;20109;-72
2022/04/27 11:12:36;;;;;;;6.53;3.00;;;;;;;-145.18;100.00;47252.31;4991472;28;20042;-71
2022/04/27 11:15:03;;;;;;;6.87;3.23;;;;;;;-145.18;100.00;47209.31;4991463;28;20034;-70
2022/04/27 11:17:29;;;;;;;6.40;3.47;;;;;;;-145.18;100.00;47137.03;4991301;28;20465;-71
2022/04/27 11:19:54;;;;;;;7.83;3.53;;;;;;;-145.18;100.00;47107.72;4991548;28;20109;-71
2022/04/27 11:22:20;;;;;;;6.77;3.87;;;;;;;-145.18;100.00;47090.16;4992201;28;20121;-71